Time;durP1;ratioP1;P1;durP2;ratioP2;P2;SDS_P1;SDS_P2;PMS_P1;PMS_P2;Temp;Humidity;BMP_temperature;BMP_pressure;BME280_temperature;BME280_humidity;BME280_pressure;Samples;Min_cycle;Max_cycle;Signal;HPM_P1;HPM_P2
2023/12/28 00:03:01;;;;;;;2.03;1.27;;;;;;;11.41;91.04;100156.22;8346521;28;20048;-54
2023/12/28 00:07:03;;;;;;;3.10;1.48;;;;;;;11.36;91.52;100163.97;8346229;28;20041;-55
2023/12/28 00:11:03;;;;;;;3.97;1.48;;;;;;;11.35;91.40;100167.66;8346235;28;20140;-54
2023/12/28 00:15:04;;;;;;;2.13;1.02;;;;;;;11.59;91.02;100180.59;8344246;28;20041;-55
2023/12/28 00:19:06;;;;;;;1.92;1.08;;;;;;;11.56;91.65;100180.91;8344780;28;20032;-55
2023/12/28 00:23:07;;;;;;;2.08;1.17;;;;;;;11.52;92.40;100164.13;8345281;28;20525;-53
2023/12/28 00:27:07;;;;;;;1.98;0.90;;;;;;;11.51;91.99;100175.97;8345519;28;20432;-54
2023/12/28 00:31:09;;;;;;;2.30;1.10;;;;;;;11.48;92.42;100183.53;8345625;28;20132;-56
2023/12/28 00:35:10;;;;;;;1.88;0.90;;;;;;;11.44;92.41;100182.97;8346785;28;20051;-55
2023/12/28 00:39:11;;;;;;;4.22;1.30;;;;;;;11.26;93.24;100184.81;8321653;28;20033;-56
2023/12/28 00:43:11;;;;;;;3.83;1.38;;;;;;;11.32;91.79;100186.91;8286647;28;20309;-56
2023/12/28 00:47:12;;;;;;;3.80;1.52;;;;;;;11.23;92.53;100185.13;8267348;28;20282;-56
2023/12/28 00:51:14;;;;;;;2.60;1.50;;;;;;;11.25;92.31;100183.13;8270550;28;20129;-55
2023/12/28 00:55:15;;;;;;;1.85;1.27;;;;;;;11.21;92.21;100197.97;8300911;28;20241;-55
2023/12/28 00:59:15;;;;;;;1.40;0.90;;;;;;;11.24;92.46;100196.81;8310862;28;20301;-53
2023/12/28 01:03:16;;;;;;;2.38;0.90;;;;;;;11.29;92.58;100189.91;8318294;28;20410;-53
2023/12/28 01:07:16;;;;;;;4.90;1.20;;;;;;;11.26;92.76;100179.41;8330613;28;20174;-55
2023/12/28 01:11:17;;;;;;;0.93;0.80;;;;;;;11.40;92.18;100197.84;8268403;28;20040;-55
2023/12/28 01:15:20;;;;;;;1.80;1.00;;;;;;;11.42;91.89;100197.69;8250649;28;20114;-54
2023/12/28 01:19:21;;;;;;;1.25;0.70;;;;;;;11.32;92.31;100205.03;8248570;28;20452;-55
2023/12/28 01:23:21;;;;;;;3.72;1.00;;;;;;;11.39;92.94;100212.38;8249102;28;20353;-55
2023/12/28 01:27:22;;;;;;;1.63;0.98;;;;;;;11.45;92.79;100217.19;8228783;28;20387;-56
2023/12/28 01:31:22;;;;;;;1.25;0.90;;;;;;;11.48;92.94;100205.19;8245301;28;20136;-55
2023/12/28 01:35:23;;;;;;;1.05;0.70;;;;;;;11.52;93.24;100228.22;8244656;28;20033;-53
2023/12/28 01:39:23;;;;;;;2.15;1.00;;;;;;;11.54;93.54;100221.69;8268987;28;20547;-55
2023/12/28 01:43:24;;;;;;;2.00;1.10;;;;;;;11.60;93.82;100217.50;8330734;28;20090;-54
2023/12/28 01:47:26;;;;;;;1.60;1.13;;;;;;;11.61;94.28;100228.16;8348865;28;20559;-54
2023/12/28 01:51:27;;;;;;;2.40;0.90;;;;;;;11.71;93.78;100239.78;8360772;28;20043;-54
2023/12/28 01:55:29;;;;;;;4.63;1.60;;;;;;;11.74;93.81;100225.94;8368983;28;20044;-55
2023/12/28 01:59:31;;;;;;;3.67;1.25;;;;;;;11.70;94.24;100237.25;8374650;28;20040;-56
2023/12/28 02:03:32;;;;;;;3.17;1.30;;;;;;;11.75;93.85;100229.53;8375273;28;20033;-55
2023/12/28 02:07:32;;;;;;;4.10;1.65;;;;;;;11.78;92.99;100211.09;8373124;28;20041;-55
2023/12/28 02:11:33;;;;;;;5.28;1.52;;;;;;;11.79;93.14;100215.50;8356803;28;20465;-53
2023/12/28 02:15:33;;;;;;;2.47;1.52;;;;;;;11.76;93.64;100225.78;8367058;28;20040;-55
2023/12/28 02:19:44;;;;;;;3.83;1.83;;;;;;;11.63;94.40;100220.78;8373855;28;20511;-55
2023/12/28 02:23:48;;;;;;;2.60;1.35;;;;;;;11.62;94.23;100232.59;8369637;28;20150;-54
2023/12/28 02:27:49;;;;;;;2.28;1.42;;;;;;;11.64;93.82;100243.28;8368586;28;20070;-54
2023/12/28 02:31:58;;;;;;;3.10;1.58;;;;;;;11.72;92.92;100241.50;8374345;28;20040;-56
2023/12/28 02:36:09;;;;;;;2.13;1.45;;;;;;;11.69;92.55;100238.25;8376572;28;20041;-56
2023/12/28 02:40:10;;;;;;;2.85;1.27;;;;;;;11.67;92.55;100243.84;8318164;28;20304;-56
2023/12/28 02:44:11;;;;;;;5.75;1.33;;;;;;;11.71;92.28;100230.81;8298918;28;20040;-56
2023/12/28 02:48:11;;;;;;;3.83;1.38;;;;;;;11.61;92.03;100233.56;8271001;28;20040;-56
2023/12/28 02:52:11;;;;;;;4.10;1.73;;;;;;;11.74;90.94;100239.50;8273969;28;20363;-55
2023/12/28 02:56:12;;;;;;;6.03;1.45;;;;;;;11.65;91.55;100239.59;8271303;28;20126;-55
2023/12/28 03:00:14;;;;;;;3.13;1.23;;;;;;;11.64;91.13;100227.03;8274392;28;20451;-57
2023/12/28 03:04:15;;;;;;;5.28;1.40;;;;;;;11.55;91.71;100238.75;8272057;28;20250;-56
2023/12/28 03:08:15;;;;;;;1.55;1.00;;;;;;;11.50;91.57;100209.44;8319105;28;20103;-55
2023/12/28 03:12:16;;;;;;;4.53;0.90;;;;;;;11.55;91.00;100217.09;8326987;28;20037;-55
2023/12/28 03:16:17;;;;;;;2.22;1.40;;;;;;;11.63;90.16;100209.97;8297818;28;20107;-55
2023/12/28 03:20:17;;;;;;;3.15;1.33;;;;;;;11.62;89.87;100208.22;8315800;28;20384;-56
2023/12/28 03:24:18;;;;;;;3.55;1.50;;;;;;;11.63;89.06;100220.78;8318441;28;20033;-56
2023/12/28 03:28:18;;;;;;;3.67;1.30;;;;;;;11.50;90.06;100206.72;8312076;28;20251;-57
2023/12/28 03:32:19;;;;;;;2.38;1.85;;;;;;;11.59;89.14;100219.34;8292393;28;20037;-56
2023/12/28 03:36:20;;;;;;;3.00;1.40;;;;;;;11.56;88.92;100208.81;8311253;28;20293;-57
2023/12/28 03:40:21;;;;;;;4.75;1.58;;;;;;;11.59;88.81;100213.91;8361688;28;20041;-56
2023/12/28 03:44:22;;;;;;;2.78;1.10;;;;;;;11.60;87.46;100215.66;8372983;28;20048;-56
2023/12/28 03:48:22;;;;;;;2.85;1.05;;;;;;;11.53;87.47;100214.53;8374117;28;20090;-55
2023/12/28 03:52:30;;;;;;;3.47;1.50;;;;;;;11.47;88.23;100209.75;8371012;28;20032;-55
2023/12/28 03:56:32;;;;;;;2.10;1.00;;;;;;;11.45;88.26;100211.75;8371499;28;20033;-54
2023/12/28 04:00:35;;;;;;;2.90;1.17;;;;;;;11.37;88.22;100213.50;8367135;28;20112;-55
2023/12/28 04:04:36;;;;;;;2.58;1.25;;;;;;;11.34;88.66;100209.28;8374015;28;20119;-55
2023/12/28 04:08:36;;;;;;;2.38;1.38;;;;;;;11.35;87.82;100194.72;8372185;28;20127;-55
2023/12/28 04:12:37;;;;;;;4.40;1.20;;;;;;;11.39;87.39;100196.13;8373354;28;20059;-55
2023/12/28 04:16:37;;;;;;;2.70;1.10;;;;;;;11.38;86.92;100199.81;8314786;28;20278;-56
2023/12/28 04:20:38;;;;;;;2.60;0.95;;;;;;;11.44;85.40;100195.69;8313034;28;20048;-56
2023/12/28 04:24:38;;;;;;;2.90;1.10;;;;;;;11.38;85.41;100191.72;8350955;28;20041;-54
2023/12/28 04:28:39;;;;;;;3.10;1.30;;;;;;;11.36;85.46;100201.00;8355486;28;20052;-56
2023/12/28 04:32:40;;;;;;;1.85;1.00;;;;;;;11.16;86.42;100200.28;8300997;28;20048;-56
2023/12/28 04:36:42;;;;;;;3.42;1.25;;;;;;;11.21;86.13;100202.53;8314438;28;20448;-55
2023/12/28 04:40:43;;;;;;;4.60;1.02;;;;;;;11.25;85.04;100185.81;8272170;28;20432;-55
2023/12/28 04:44:43;;;;;;;3.17;1.20;;;;;;;11.46;82.70;100190.94;8283516;28;20045;-56
2023/12/28 04:48:45;;;;;;;3.60;1.30;;;;;;;11.38;83.13;100207.94;8270598;28;20439;-56
2023/12/28 04:52:45;;;;;;;2.30;1.05;;;;;;;11.30;83.52;100217.84;8272292;28;20567;-55
2023/12/28 04:56:46;;;;;;;4.15;1.23;;;;;;;11.17;84.65;100222.78;8282615;28;20718;-56
2023/12/28 05:00:46;;;;;;;2.90;1.70;;;;;;;11.01;85.38;100222.59;8345735;28;20049;-57
2023/12/28 05:04:47;;;;;;;4.13;2.03;;;;;;;10.88;86.43;100243.69;8363757;28;20047;-53
2023/12/28 05:08:47;;;;;;;4.65;1.30;;;;;;;10.39;90.20;100252.13;8313772;28;20680;-55
2023/12/28 05:12:48;;;;;;;2.70;1.40;;;;;;;9.94;94.86;100259.97;8310733;28;20103;-54
2023/12/28 05:16:48;;;;;;;3.75;1.70;;;;;;;9.75;97.60;100257.28;8309842;28;20064;-56
2023/12/28 05:20:49;;;;;;;3.35;1.42;;;;;;;9.55;99.53;100271.78;8305898;28;20067;-54
2023/12/28 05:24:49;;;;;;;5.15;1.88;;;;;;;9.31;100.00;100269.47;8310648;28;20068;-55
2023/12/28 05:28:49;;;;;;;2.28;1.60;;;;;;;9.20;100.00;100274.09;8310862;28;20380;-54
2023/12/28 05:32:50;;;;;;;3.50;1.63;;;;;;;8.99;100.00;100271.50;8306502;28;20053;-55
2023/12/28 05:36:50;;;;;;;4.75;2.17;;;;;;;9.02;100.00;100283.84;8329567;28;20508;-56
2023/12/28 05:40:51;;;;;;;3.55;1.60;;;;;;;9.00;100.00;100291.22;8334744;28;20067;-55
2023/12/28 05:44:51;;;;;;;2.85;1.80;;;;;;;8.70;100.00;100293.91;8338572;28;20048;-56
2023/12/28 05:48:52;;;;;;;1.90;1.45;;;;;;;8.94;100.00;100314.16;8333944;28;20504;-55
2023/12/28 05:52:52;;;;;;;5.05;1.98;;;;;;;9.09;100.00;100326.28;8337418;28;20056;-54
2023/12/28 05:56:53;;;;;;;4.20;1.60;;;;;;;8.98;100.00;100318.31;8335803;28;20072;-55
2023/12/28 06:00:54;;;;;;;5.22;2.08;;;;;;;8.98;100.00;100315.63;8327052;28;20067;-54
2023/12/28 06:04:54;;;;;;;3.13;1.70;;;;;;;8.82;100.00;100306.31;8317082;28;20072;-55
2023/12/28 06:08:55;;;;;;;8.23;2.00;;;;;;;8.89;100.00;100320.97;8329514;28;20052;-56
2023/12/28 06:12:59;;;;;;;4.05;1.90;;;;;;;9.06;100.00;100312.25;8329126;28;20133;-55
2023/12/28 06:16:59;;;;;;;4.72;1.98;;;;;;;8.97;100.00;100308.50;8341653;28;20083;-55
2023/12/28 06:21:00;;;;;;;5.07;1.70;;;;;;;9.64;95.99;100309.56;8332203;28;20124;-55
2023/12/28 06:25:00;;;;;;;4.03;1.38;;;;;;;10.13;91.82;100295.13;8337455;28;20106;-55
2023/12/28 06:29:01;;;;;;;3.65;1.25;;;;;;;10.25;90.09;100318.31;8337909;28;20052;-55
2023/12/28 06:33:01;;;;;;;2.30;1.27;;;;;;;10.35;89.35;100311.03;8340314;28;20041;-56
2023/12/28 06:37:02;;;;;;;7.43;1.77;;;;;;;10.56;87.71;100314.41;8332801;28;20091;-56
2023/12/28 06:41:02;;;;;;;6.50;1.08;;;;;;;10.62;87.20;100324.66;8286310;28;20275;-57
2023/12/28 06:45:03;;;;;;;6.28;1.73;;;;;;;10.65;87.15;100316.25;8287051;28;20534;-56
2023/12/28 06:49:05;;;;;;;3.92;1.02;;;;;;;10.66;86.88;100330.59;8283875;28;20551;-56
2023/12/28 06:53:06;;;;;;;6.03;1.38;;;;;;;10.66;86.77;100331.47;8301005;28;20037;-55
2023/12/28 06:57:06;;;;;;;4.03;1.50;;;;;;;10.56;87.13;100341.44;8280871;28;20099;-56
2023/12/28 07:01:07;;;;;;;4.10;1.40;;;;;;;10.49;88.01;100334.06;8280869;28;20350;-56
2023/12/28 07:05:08;;;;;;;5.85;1.30;;;;;;;10.33;88.83;100334.63;8279487;28;20276;-56
2023/12/28 07:09:08;;;;;;;7.60;1.83;;;;;;;10.10;89.42;100354.84;8278406;28;20580;-56
2023/12/28 07:13:09;;;;;;;5.95;1.48;;;;;;;9.52;91.99;100342.22;8279957;28;20087;-54
2023/12/28 07:17:11;;;;;;;7.60;1.77;;;;;;;9.32;94.08;100335.03;8281886;28;20582;-55
2023/12/28 07:21:12;;;;;;;5.32;2.05;;;;;;;9.11;96.18;100347.72;8281346;28;20212;-55
2023/12/28 07:25:14;;;;;;;5.47;1.52;;;;;;;9.11;97.01;100334.25;8335466;28;20075;-55
2023/12/28 07:29:14;;;;;;;2.25;1.40;;;;;;;9.15;96.45;100339.22;8334649;28;20038;-55
2023/12/28 07:33:15;;;;;;;4.78;2.28;;;;;;;9.11;95.94;100353.13;8334316;28;20044;-56
2023/12/28 07:37:15;;;;;;;7.63;1.63;;;;;;;9.05;96.54;100354.53;8331162;28;20489;-55
2023/12/28 07:41:16;;;;;;;4.63;2.05;;;;;;;9.00;96.89;100353.25;8334628;28;20134;-56
2023/12/28 07:45:17;;;;;;;8.68;1.92;;;;;;;8.85;97.10;100359.97;8330313;28;20053;-54
2023/12/28 07:49:18;;;;;;;9.88;2.85;;;;;;;8.85;98.22;100363.53;8333269;28;20052;-55
2023/12/28 07:53:19;;;;;;;6.15;2.70;;;;;;;8.93;97.71;100365.53;8328896;28;20045;-55
2023/12/28 07:57:21;;;;;;;3.25;2.53;;;;;;;8.79;98.24;100382.06;8331825;28;20045;-55
2023/12/28 08:01:22;;;;;;;4.28;1.85;;;;;;;8.81;99.19;100377.41;8333529;28;20041;-56
2023/12/28 08:05:22;;;;;;;6.97;2.63;;;;;;;9.11;97.74;100382.78;8339026;28;20041;-55
2023/12/28 08:09:23;;;;;;;6.80;2.40;;;;;;;9.57;94.82;100393.91;8325698;28;20087;-55
2023/12/28 08:13:23;;;;;;;6.65;2.35;;;;;;;9.72;92.87;100392.53;8334551;28;20037;-56
2023/12/28 08:17:24;;;;;;;9.23;3.70;;;;;;;9.84;92.63;100399.53;8333647;28;20060;-55
2023/12/28 08:21:24;;;;;;;15.00;6.28;;;;;;;9.96;90.98;100411.91;8330512;28;20036;-54
2023/12/28 08:25:24;;;;;;;9.70;2.13;;;;;;;9.70;92.88;100421.53;8333069;28;20045;-54
2023/12/28 08:29:26;;;;;;;6.40;2.45;;;;;;;9.58;94.68;100411.81;8329562;28;20039;-55
2023/12/28 08:33:26;;;;;;;3.55;1.85;;;;;;;9.59;94.92;100413.53;8335856;28;20055;-55
2023/12/28 08:37:27;;;;;;;6.57;2.08;;;;;;;9.63;95.46;100415.81;8348224;28;20061;-55
2023/12/28 08:41:27;;;;;;;4.90;2.10;;;;;;;9.68;95.76;100413.56;8335878;28;20052;-54
2023/12/28 08:45:28;;;;;;;11.77;3.08;;;;;;;10.01;93.88;100417.78;8335768;28;20040;-56
2023/12/28 08:49:29;;;;;;;4.60;2.15;;;;;;;10.34;91.97;100427.38;8331030;28;20041;-56
2023/12/28 08:53:29;;;;;;;8.55;2.35;;;;;;;10.62;90.74;100421.97;8327646;28;20124;-54
2023/12/28 08:57:30;;;;;;;9.15;2.75;;;;;;;10.97;88.83;100421.31;8331385;28;20108;-54
2023/12/28 09:01:30;;;;;;;6.10;2.22;;;;;;;11.28;86.59;100431.78;8332583;28;20041;-55
2023/12/28 09:05:31;;;;;;;9.80;1.70;;;;;;;11.28;86.26;100417.41;8325530;28;20056;-54
2023/12/28 09:09:31;;;;;;;5.35;1.40;;;;;;;11.43;84.89;100429.44;8332554;28;20490;-54
2023/12/28 09:13:31;;;;;;;6.30;1.77;;;;;;;11.43;84.88;100421.34;8355302;28;20679;-54
2023/12/28 09:17:32;;;;;;;3.63;1.15;;;;;;;11.53;84.42;100423.00;8325365;28;20041;-55
2023/12/28 09:21:33;;;;;;;11.30;1.50;;;;;;;11.76;82.00;100426.22;8317673;28;20510;-55
2023/12/28 09:25:33;;;;;;;10.00;1.45;;;;;;;11.82;81.56;100420.19;8325564;28;20289;-56
2023/12/28 09:29:34;;;;;;;7.78;1.65;;;;;;;11.77;82.54;100423.34;8331644;28;20040;-55
2023/12/28 09:33:35;;;;;;;18.08;1.95;;;;;;;12.02;80.87;100434.47;8334921;28;20048;-55
2023/12/28 09:37:36;;;;;;;7.20;1.30;;;;;;;12.27;80.12;100441.88;8326726;28;20033;-56
2023/12/28 09:41:42;;;;;;;6.30;1.33;;;;;;;12.14;80.98;100435.97;8334203;28;20070;-55
2023/12/28 09:45:47;;;;;;;9.55;1.80;;;;;;;12.22;80.34;100444.19;8327451;28;20280;-56
2023/12/28 09:49:48;;;;;;;6.15;1.25;;;;;;;12.39;79.41;100437.94;8331934;28;20041;-55
2023/12/28 09:53:48;;;;;;;10.88;1.20;;;;;;;13.15;76.92;100440.81;8323721;28;20063;-56
2023/12/28 09:57:49;;;;;;;6.55;1.40;;;;;;;13.88;74.30;100433.97;8331227;28;20037;-54
2023/12/28 10:01:50;;;;;;;5.10;1.30;;;;;;;15.58;67.51;100418.47;8331411;28;20041;-56
2023/12/28 10:05:50;;;;;;;8.98;1.40;;;;;;;16.51;64.26;100433.03;8333000;28;20041;-57
2023/12/28 10:09:51;;;;;;;7.72;1.27;;;;;;;16.66;63.41;100426.63;8316081;28;20049;-56
2023/12/28 10:13:53;;;;;;;6.38;1.20;;;;;;;16.38;63.52;100422.66;8322798;28;20115;-56
2023/12/28 10:17:53;;;;;;;5.93;0.90;;;;;;;16.49;62.63;100415.97;8328813;28;20475;-54
2023/12/28 10:21:54;;;;;;;5.60;1.50;;;;;;;17.58;60.28;100412.66;8336890;28;20412;-55
2023/12/28 10:25:56;;;;;;;6.40;1.20;;;;;;;18.16;58.70;100407.13;8331344;28;20098;-54
2023/12/28 10:29:57;;;;;;;8.10;1.25;;;;;;;18.02;58.34;100394.31;8335335;28;20068;-56
2023/12/28 10:33:59;;;;;;;7.68;1.08;;;;;;;18.46;57.63;100396.97;8311559;28;20048;-55
2023/12/28 10:38:03;;;;;;;5.95;1.65;;;;;;;18.32;58.04;100389.59;8318698;28;20087;-56
2023/12/28 10:42:11;;;;;;;7.25;1.15;;;;;;;18.19;58.14;100390.31;8320962;28;20044;-57
2023/12/28 10:46:30;;;;;;;5.60;1.40;;;;;;;17.76;58.40;100399.44;8313993;28;20030;-55
2023/12/28 10:50:38;;;;;;;4.28;1.10;;;;;;;17.50;59.05;100396.31;8323474;28;20072;-53
2023/12/28 10:54:52;;;;;;;5.82;1.48;;;;;;;17.44;58.97;100406.13;8320698;28;20124;-54
2023/12/28 10:59:05;;;;;;;10.07;1.10;;;;;;;17.02;60.48;100405.81;8327015;28;20047;-55
2023/12/28 11:03:10;;;;;;;6.50;1.17;;;;;;;17.67;59.59;100400.56;8309019;28;20062;-53
2023/12/28 11:07:14;;;;;;;5.07;1.17;;;;;;;17.69;58.86;100382.09;8310091;28;20045;-55
2023/12/28 11:11:18;;;;;;;5.73;0.97;;;;;;;17.94;58.67;100385.38;8316009;28;20037;-54
2023/12/28 11:15:20;;;;;;;6.13;1.20;;;;;;;17.92;58.39;100388.28;8314915;28;20295;-55
2023/12/28 11:19:22;;;;;;;3.75;0.82;;;;;;;17.16;59.76;100376.84;8316376;28;20519;-53
2023/12/28 11:23:24;;;;;;;8.90;1.15;;;;;;;17.49;59.82;100375.50;8315035;28;20518;-55
2023/12/28 11:27:25;;;;;;;6.38;1.20;;;;;;;18.18;58.60;100377.69;8300863;28;20079;-53
2023/12/28 11:31:26;;;;;;;2.80;0.80;;;;;;;18.25;57.48;100381.34;8309395;28;20041;-55
2023/12/28 11:35:35;;;;;;;3.45;0.90;;;;;;;18.08;57.42;100366.19;8289824;28;20148;-53
2023/12/28 11:39:38;;;;;;;7.15;1.30;;;;;;;18.61;56.55;100357.56;8322988;28;20037;-54
2023/12/28 11:43:39;;;;;;;3.97;0.90;;;;;;;18.31;56.29;100372.34;8327117;28;20065;-56
2023/12/28 11:47:39;;;;;;;5.78;1.13;;;;;;;18.07;56.80;100369.97;8329149;28;20033;-54
2023/12/28 11:51:40;;;;;;;6.07;1.20;;;;;;;17.77;57.95;100351.91;8334087;28;20041;-56
2023/12/28 11:55:40;;;;;;;5.63;1.00;;;;;;;17.55;58.08;100353.72;8323789;28;20397;-55
2023/12/28 11:59:41;;;;;;;7.90;1.50;;;;;;;16.56;60.42;100359.66;8333494;28;20033;-53
2023/12/28 12:03:42;;;;;;;6.35;1.10;;;;;;;16.05;61.67;100361.19;8320724;28;20036;-55
2023/12/28 12:07:43;;;;;;;6.18;1.17;;;;;;;15.53;62.34;100358.16;8324048;28;20530;-55
2023/12/28 12:11:43;;;;;;;11.02;1.55;;;;;;;15.57;62.74;100356.81;8322765;28;20052;-55
2023/12/28 12:15:44;;;;;;;6.72;1.48;;;;;;;15.12;64.77;100359.28;8329860;28;20128;-54
2023/12/28 12:19:48;;;;;;;6.72;1.15;;;;;;;15.44;63.04;100363.84;8329203;28;20041;-55
2023/12/28 12:23:50;;;;;;;9.20;1.20;;;;;;;15.36;64.05;100351.06;8317352;28;20048;-54
2023/12/28 12:27:51;;;;;;;6.13;0.90;;;;;;;15.21;63.27;100347.34;8312441;28;20049;-55
2023/12/28 12:31:51;;;;;;;6.07;1.02;;;;;;;14.99;64.85;100342.66;8317248;28;20128;-56
2023/12/28 12:35:53;;;;;;;4.68;1.30;;;;;;;15.21;64.05;100338.31;8327588;28;20069;-55
2023/12/28 12:39:54;;;;;;;5.55;0.98;;;;;;;15.07;64.86;100318.09;8297060;28;20444;-55
2023/12/28 12:43:56;;;;;;;5.07;0.93;;;;;;;14.83;65.73;100339.97;8286475;28;20045;-55
2023/12/28 12:47:57;;;;;;;5.63;0.88;;;;;;;14.78;64.81;100330.59;8344607;28;20263;-57
2023/12/28 12:51:57;;;;;;;5.32;1.10;;;;;;;14.77;64.97;100329.75;8314784;28;20040;-56
2023/12/28 12:55:58;;;;;;;5.22;0.95;;;;;;;14.82;64.06;100327.34;8315052;28;20057;-56
2023/12/28 13:00:01;;;;;;;7.38;1.05;;;;;;;14.64;65.08;100313.09;8313073;28;20492;-57
2023/12/28 13:04:02;;;;;;;11.70;1.40;;;;;;;14.56;65.23;100326.72;8319169;28;20120;-55
2023/12/28 13:08:04;;;;;;;6.20;1.27;;;;;;;14.52;65.40;100330.78;8316460;28;20041;-56
2023/12/28 13:12:04;;;;;;;6.22;1.10;;;;;;;14.43;65.76;100329.09;8314333;28;20059;-55
2023/12/28 13:16:05;;;;;;;8.07;1.20;;;;;;;14.42;65.74;100323.84;8314110;28;20039;-56
2023/12/28 13:20:06;;;;;;;5.20;1.00;;;;;;;14.41;66.55;100317.53;8314164;28;20120;-55
2023/12/28 13:24:09;;;;;;;9.55;1.50;;;;;;;14.50;65.86;100315.66;8315801;28;20061;-56
2023/12/28 13:28:10;;;;;;;4.82;0.70;;;;;;;14.24;66.87;100313.09;8317246;28;20034;-56
2023/12/28 13:32:11;;;;;;;7.53;1.55;;;;;;;14.18;66.80;100305.56;8315156;28;20033;-55
2023/12/28 13:36:11;;;;;;;6.80;1.20;;;;;;;14.11;67.24;100299.13;8315002;28;20491;-56
2023/12/28 13:40:11;;;;;;;6.70;0.80;;;;;;;14.14;67.46;100309.66;8313101;28;20041;-55
2023/12/28 13:44:12;;;;;;;9.13;1.40;;;;;;;14.06;67.74;100315.06;8318836;28;20443;-56
2023/12/28 13:48:12;;;;;;;11.13;1.48;;;;;;;14.02;67.65;100316.44;8319476;28;20578;-55
2023/12/28 13:52:13;;;;;;;6.93;1.40;;;;;;;13.91;67.35;100308.63;8326149;28;20052;-55
2023/12/28 13:56:13;;;;;;;10.25;1.00;;;;;;;13.79;68.53;100309.94;8337174;28;20453;-55
2023/12/28 14:00:14;;;;;;;8.98;1.10;;;;;;;13.72;69.04;100298.88;8322910;28;20046;-55
2023/12/28 14:04:15;;;;;;;7.32;0.90;;;;;;;13.60;69.44;100293.91;8329492;28;20167;-56
2023/12/28 14:08:16;;;;;;;7.20;1.10;;;;;;;13.64;69.09;100295.31;8321361;28;20099;-55
2023/12/28 14:12:16;;;;;;;7.85;2.20;;;;;;;13.53;70.61;100292.88;8331681;28;20037;-55
2023/12/28 14:16:17;;;;;;;6.93;1.00;;;;;;;13.36;70.49;100296.56;8332983;28;20094;-55
2023/12/28 14:20:17;;;;;;;4.78;1.02;;;;;;;13.37;71.04;100299.13;8331093;28;20352;-56
2023/12/28 14:24:18;;;;;;;6.88;1.63;;;;;;;13.38;70.64;100289.09;8318671;28;20040;-57
2023/12/28 14:28:21;;;;;;;6.63;1.20;;;;;;;13.30;70.68;100292.63;8329773;28;20041;-55
2023/12/28 14:32:22;;;;;;;5.85;1.13;;;;;;;13.18;71.69;100293.09;8323545;28;20090;-56
2023/12/28 14:36:31;;;;;;;6.13;0.77;;;;;;;13.00;72.93;100295.03;8329336;28;20045;-55
2023/12/28 14:40:32;;;;;;;6.97;1.55;;;;;;;12.90;73.49;100294.28;8349934;28;20042;-54
2023/12/28 14:44:32;;;;;;;9.38;1.45;;;;;;;12.90;72.81;100272.56;8365373;28;20048;-55
2023/12/28 14:48:32;;;;;;;5.82;1.23;;;;;;;12.92;71.84;100275.94;8325955;28;20249;-56
2023/12/28 14:52:33;;;;;;;14.45;1.40;;;;;;;12.92;72.07;100262.38;8328695;28;20038;-56
2023/12/28 14:56:34;;;;;;;4.57;1.10;;;;;;;12.86;72.42;100260.31;8333372;28;20029;-55
2023/12/28 15:00:34;;;;;;;7.45;1.20;;;;;;;12.82;72.42;100258.94;8336628;28;20045;-55
2023/12/28 15:04:35;;;;;;;3.55;0.73;;;;;;;12.78;72.91;100257.56;8335190;28;20475;-56
2023/12/28 15:08:35;;;;;;;11.05;1.58;;;;;;;12.69;74.08;100253.13;8333170;28;20040;-55
2023/12/28 15:12:36;;;;;;;7.20;0.85;;;;;;;12.70;74.10;100260.22;8329785;28;20091;-54
2023/12/28 15:16:37;;;;;;;9.57;1.73;;;;;;;12.59;75.02;100252.38;8335557;28;20542;-55
2023/12/28 15:20:37;;;;;;;9.50;2.28;;;;;;;12.40;76.52;100266.13;8330466;28;20766;-56
2023/12/28 15:24:38;;;;;;;10.35;2.47;;;;;;;12.36;77.23;100267.44;8334246;28;20049;-56
2023/12/28 15:28:39;;;;;;;9.15;2.08;;;;;;;12.25;77.90;100264.97;8336092;28;20050;-55
2023/12/28 15:32:39;;;;;;;8.05;1.52;;;;;;;12.19;78.70;100260.19;8332433;28;20614;-56
2023/12/28 15:36:40;;;;;;;6.72;1.40;;;;;;;12.18;78.99;100269.34;8339340;28;20423;-56
2023/12/28 15:40:42;;;;;;;5.60;1.55;;;;;;;12.16;79.05;100265.91;8332277;28;20272;-56
2023/12/28 15:44:42;;;;;;;8.77;1.50;;;;;;;12.12;79.71;100270.81;8336027;28;20447;-54
2023/12/28 15:48:43;;;;;;;5.90;1.30;;;;;;;12.07;80.12;100258.75;8334363;28;20617;-53
2023/12/28 15:52:43;;;;;;;4.22;1.27;;;;;;;12.08;80.75;100258.59;8329879;28;20124;-55
2023/12/28 15:56:44;;;;;;;4.28;0.75;;;;;;;12.08;81.41;100263.16;8333472;28;20077;-56
2023/12/28 16:00:44;;;;;;;5.72;1.27;;;;;;;12.11;81.18;100261.00;8333534;28;20069;-55
2023/12/28 16:04:45;;;;;;;3.25;0.98;;;;;;;12.10;81.18;100259.28;8334665;28;20045;-54
2023/12/28 16:08:45;;;;;;;4.25;1.08;;;;;;;12.12;81.23;100253.69;8334802;28;20083;-55
2023/12/28 16:12:46;;;;;;;8.40;1.35;;;;;;;12.06;81.74;100260.59;8329816;28;20096;-56
2023/12/28 16:16:46;;;;;;;2.53;0.95;;;;;;;12.04;81.58;100261.78;8334987;28;20457;-54
2023/12/28 16:20:47;;;;;;;5.68;1.23;;;;;;;12.01;81.53;100262.09;8329877;28;20488;-55
2023/12/28 16:24:48;;;;;;;8.20;1.08;;;;;;;12.05;81.38;100252.63;8335939;28;20049;-57
2023/12/28 16:28:48;;;;;;;7.28;2.30;;;;;;;12.07;81.34;100254.16;8325754;28;20133;-55
2023/12/28 16:32:49;;;;;;;4.05;1.55;;;;;;;12.00;81.74;100249.53;8333452;28;20095;-55
2023/12/28 16:36:49;;;;;;;4.50;2.13;;;;;;;11.93;82.24;100243.91;8333600;28;20037;-56
2023/12/28 16:40:50;;;;;;;5.35;1.27;;;;;;;11.89;82.14;100246.06;8330887;28;20075;-57
2023/12/28 16:44:50;;;;;;;5.13;0.98;;;;;;;11.86;82.13;100259.91;8332806;28;20036;-55
2023/12/28 16:48:51;;;;;;;1.77;0.57;;;;;;;11.87;81.06;100261.59;8331284;28;20041;-57
2023/12/28 16:52:53;;;;;;;6.47;1.20;;;;;;;11.95;80.47;100260.00;8324242;28;20180;-56
2023/12/28 16:56:54;;;;;;;2.85;1.10;;;;;;;11.92;80.38;100261.16;8331439;28;20515;-55
2023/12/28 17:00:55;;;;;;;3.67;0.93;;;;;;;11.87;81.18;100256.19;8330026;28;20415;-56
2023/12/28 17:04:55;;;;;;;4.30;0.75;;;;;;;11.81;81.21;100256.81;8332924;28;20037;-56
2023/12/28 17:08:56;;;;;;;3.75;0.95;;;;;;;11.95;79.16;100254.59;8331484;28;20450;-56
2023/12/28 17:12:57;;;;;;;3.88;1.23;;;;;;;11.87;79.22;100250.78;8331793;28;20620;-55
2023/12/28 17:16:58;;;;;;;3.90;0.95;;;;;;;11.74;78.89;100238.63;8324157;28;20060;-55
2023/12/28 17:20:58;;;;;;;5.18;1.10;;;;;;;11.77;78.01;100255.44;8312524;28;20069;-54
2023/12/28 17:25:10;;;;;;;3.30;1.20;;;;;;;11.76;77.13;100247.47;8320925;28;20396;-54
2023/12/28 17:29:14;;;;;;;8.23;1.30;;;;;;;11.81;76.91;100259.53;8322711;28;20041;-55
2023/12/28 17:33:15;;;;;;;3.88;1.20;;;;;;;11.67;77.53;100249.25;8317289;28;20065;-56
2023/12/28 17:37:17;;;;;;;6.00;1.55;;;;;;;11.52;78.11;100245.34;8327105;28;20432;-56
2023/12/28 17:41:22;;;;;;;10.35;4.15;;;;;;;11.45;79.19;100255.06;8338077;28;20470;-55
2023/12/28 17:45:28;;;;;;;;;;;;;;;11.41;78.87;100253.66;8322143;28;20052;-55
2023/12/28 17:49:30;;;;;;;14.38;5.55;;;;;;;11.27;79.05;100259.59;8317634;28;19925;-55
2023/12/28 17:53:31;;;;;;;16.85;5.25;;;;;;;11.30;78.96;100259.31;8328769;28;20176;-56
2023/12/28 17:57:31;;;;;;;16.20;4.78;;;;;;;11.24;79.13;100257.19;8333986;28;20037;-56
2023/12/28 18:01:32;;;;;;;7.40;2.88;;;;;;;11.13;79.59;100257.38;8333022;28;20033;-55
2023/12/28 18:05:32;;;;;;;3.65;1.83;;;;;;;11.10;79.61;100260.41;8331593;28;20041;-55
2023/12/28 18:09:36;;;;;;;9.07;1.65;;;;;;;11.04;80.30;100266.41;8327132;28;20137;-55
2023/12/28 18:13:36;;;;;;;4.38;1.45;;;;;;;11.14;79.89;100261.81;8330381;28;20038;-56
2023/12/28 18:17:37;;;;;;;6.00;2.00;;;;;;;11.19;80.10;100255.97;8331520;28;20121;-56
2023/12/28 18:21:40;;;;;;;17.23;5.82;;;;;;;11.18;79.70;100256.94;8329918;28;20039;-55
2023/12/28 18:25:40;;;;;;;10.05;3.83;;;;;;;11.11;80.21;100259.41;8325987;28;20049;-55
2023/12/28 18:29:41;;;;;;;8.70;2.70;;;;;;;11.03;81.23;100248.47;8332572;28;20477;-54
2023/12/28 18:33:41;;;;;;;7.03;2.42;;;;;;;11.09;81.01;100237.06;8335882;28;20132;-54
2023/12/28 18:37:42;;;;;;;4.80;1.50;;;;;;;10.98;81.87;100252.66;8333828;28;20041;-56
2023/12/28 18:41:42;;;;;;;4.25;1.13;;;;;;;10.88;82.39;100249.97;8333622;28;20324;-54
2023/12/28 18:45:45;;;;;;;5.63;1.50;;;;;;;10.82;83.13;100255.97;8332842;28;20045;-54